Time;durP1;ratioP1;P1;durP2;ratioP2;P2;SDS_P1;SDS_P2;PMS_P1;PMS_P2;Temp;Humidity;BMP_temperature;BMP_pressure;BME280_temperature;BME280_humidity;BME280_pressure;Samples;Min_cycle;Max_cycle;Signal;HPM_P1;HPM_P2
2024/02/16 04:41:10;;;;;;;41.90;20.70;;;;;;;5.65;95.86;100560.58;104541;1304;555785;-85
2024/02/16 04:43:58;;;;;;;48.60;22.60;;;;;;;5.60;95.88;100564.73;107318;1282;25607;-84
2024/02/16 04:46:46;;;;;;;50.20;23.30;;;;;;;5.57;96.07;100561.73;107594;1278;22523;-84
2024/02/16 04:49:35;;;;;;;47.10;24.20;;;;;;;5.51;96.23;100566.56;108022;1271;24244;-85
2024/02/16 04:52:23;;;;;;;45.40;21.60;;;;;;;5.48;96.41;100568.39;107999;1271;25669;-84
2024/02/16 04:55:10;;;;;;;52.20;23.20;;;;;;;5.46;96.46;100560.94;108129;1268;176240;-84
2024/02/16 04:57:59;;;;;;;54.50;23.80;;;;;;;5.43;96.48;100556.98;108328;1268;22521;-85
2024/02/16 05:00:47;;;;;;;54.70;24.30;;;;;;;5.38;96.51;100556.39;108251;1269;23886;-84
2024/02/16 05:03:35;;;;;;;50.60;23.90;;;;;;;5.36;96.70;100561.06;108253;1259;24254;-84
2024/02/16 05:06:24;;;;;;;50.70;23.30;;;;;;;5.34;96.65;100560.07;108274;1269;22536;-84
2024/02/16 05:09:12;;;;;;;51.10;22.00;;;;;;;5.31;96.84;100554.52;108397;1269;23764;-84
2024/02/16 05:12:00;;;;;;;46.90;21.80;;;;;;;5.26;96.87;100551.95;108560;1269;25185;-82
2024/02/16 05:14:49;;;;;;;50.70;23.00;;;;;;;5.25;97.06;100552.79;108535;1266;25272;-84
2024/02/16 05:17:37;;;;;;;46.00;20.80;;;;;;;5.23;97.08;100546.75;108480;1269;25390;-84
2024/02/16 05:20:26;;;;;;;43.50;19.90;;;;;;;5.22;97.06;100550.34;108320;1269;25322;-84
2024/02/16 05:23:14;;;;;;;45.30;21.10;;;;;;;5.18;97.20;100550.20;108440;1270;24100;-84
2024/02/16 05:26:02;;;;;;;46.50;20.80;;;;;;;5.14;97.22;100546.92;108368;1269;22557;-84
2024/02/16 05:28:50;;;;;;;47.70;21.50;;;;;;;5.09;97.34;100547.42;108587;1269;22540;-84
2024/02/16 05:31:38;;;;;;;44.70;21.40;;;;;;;5.07;97.53;100540.77;108475;1269;22630;-84
2024/02/16 05:34:32;;;;;;;48.70;22.50;;;;;;;5.05;97.72;100538.77;108710;1268;22458;-85
2024/02/16 05:37:20;;;;;;;50.20;23.30;;;;;;;5.03;97.84;100543.55;108895;1268;22539;-84
2024/02/16 05:40:21;;;;;;;45.50;22.20;;;;;;;5.01;97.95;100543.46;108974;1268;24180;-85
2024/02/16 05:43:09;;;;;;;52.10;22.20;;;;;;;4.99;98.15;100545.64;109990;1268;22492;-85
2024/02/16 05:45:58;;;;;;;54.80;24.10;;;;;;;4.98;98.15;100547.55;109166;1268;22664;-86
2024/02/16 05:48:46;;;;;;;54.40;25.20;;;;;;;4.96;98.30;100546.02;108654;1265;23455;-85
2024/02/16 05:51:39;;;;;;;63.30;29.10;;;;;;;4.96;98.38;100544.84;108624;1269;23287;-85
2024/02/16 05:54:27;;;;;;;63.00;27.80;;;;;;;4.95;98.46;100540.27;111457;1268;22169;-86
2024/02/16 05:57:18;;;;;;;51.70;25.70;;;;;;;4.96;98.36;100543.89;111450;1262;22969;-86
2024/02/16 06:00:08;;;;;;;53.50;23.40;;;;;;;4.97;98.53;100546.88;111241;1263;22156;-87
2024/02/16 06:02:56;;;;;;;51.70;22.50;;;;;;;4.98;98.49;100548.36;111427;1263;22244;-86
2024/02/16 06:05:44;;;;;;;46.80;21.00;;;;;;;4.99;98.51;100549.84;111443;1260;22071;-84
2024/02/16 06:08:33;;;;;;;47.30;22.20;;;;;;;4.98;98.42;100553.25;111190;1268;24311;-85
2024/02/16 06:11:21;;;;;;;41.20;20.00;;;;;;;4.96;98.38;100551.73;108663;1268;22537;-83
2024/02/16 06:14:08;;;;;;;48.70;21.50;;;;;;;4.95;98.39;100562.02;108687;1266;22535;-83
2024/02/16 06:16:56;;;;;;;45.80;20.80;;;;;;;4.93;98.45;100560.79;109187;1263;22649;-83
2024/02/16 06:19:44;;;;;;;44.10;19.60;;;;;;;4.93;98.59;100561.58;108761;1260;25465;-82
2024/02/16 06:22:32;;;;;;;42.80;19.70;;;;;;;4.94;98.63;100558.48;108997;1263;22565;-83
2024/02/16 06:25:19;;;;;;;46.80;19.90;;;;;;;4.90;98.76;100554.09;108867;1260;22576;-83
2024/02/16 06:28:07;;;;;;;46.40;21.00;;;;;;;4.88;98.95;100554.68;108796;1268;22533;-83
2024/02/16 06:30:56;;;;;;;44.80;19.80;;;;;;;4.87;99.14;100561.89;109480;1268;25217;-82
2024/02/16 06:33:43;;;;;;;45.20;20.50;;;;;;;4.88;99.40;100559.81;108895;1268;22542;-82
2024/02/16 06:36:31;;;;;;;40.80;17.60;;;;;;;4.86;99.48;100559.41;108995;1268;25043;-83
2024/02/16 06:39:19;;;;;;;50.40;20.60;;;;;;;4.85;99.63;100558.70;108824;1268;22632;-83
2024/02/16 06:42:07;;;;;;;43.70;18.90;;;;;;;4.86;99.80;100561.94;108746;1268;23052;-82
2024/02/16 06:44:55;;;;;;;50.60;23.40;;;;;;;4.86;99.85;100560.34;108799;1263;23272;-81
2024/02/16 06:47:43;;;;;;;52.10;22.10;;;;;;;4.89;99.98;100559.09;108945;1266;23335;-82
2024/02/16 06:50:31;;;;;;;50.20;21.30;;;;;;;4.90;99.96;100562.30;108903;1263;26127;-81
2024/02/16 06:53:18;;;;;;;47.00;22.00;;;;;;;4.91;99.99;100562.35;109344;1264;24291;-83
2024/02/16 06:56:07;;;;;;;43.70;20.50;;;;;;;4.93;100.00;100562.85;108874;1257;22533;-83
2024/02/16 06:58:56;;;;;;;48.80;21.30;;;;;;;4.95;100.00;100566.04;108891;1268;24194;-82
2024/02/16 07:01:44;;;;;;;45.50;22.20;;;;;;;4.98;100.00;100575.08;108792;1266;24246;-82
2024/02/16 07:04:32;;;;;;;54.00;24.00;;;;;;;5.01;100.00;100580.05;108852;1266;22515;-82
2024/02/16 07:07:19;;;;;;;49.40;23.20;;;;;;;5.03;100.00;100581.27;109107;1264;22545;-82
2024/02/16 07:10:13;;;;;;;45.20;23.00;;;;;;;5.07;100.00;100579.44;109110;1261;22540;-82
2024/02/16 07:13:01;;;;;;;45.60;20.50;;;;;;;5.09;100.00;100586.59;108829;1268;24184;-82
2024/02/16 07:15:48;;;;;;;45.90;21.30;;;;;;;5.11;100.00;100584.30;108839;1262;23082;-82
2024/02/16 07:18:36;;;;;;;45.20;20.10;;;;;;;5.15;100.00;100590.30;108667;1263;24177;-82
2024/02/16 07:21:25;;;;;;;45.10;21.20;;;;;;;5.18;100.00;100587.29;108721;1268;22670;-82
2024/02/16 07:24:15;;;;;;;44.80;21.90;;;;;;;5.22;100.00;100591.33;108861;1265;24193;-82
2024/02/16 07:27:03;;;;;;;49.20;21.50;;;;;;;5.25;100.00;100595.64;108942;1256;22521;-82
2024/02/16 07:29:51;;;;;;;41.10;19.20;;;;;;;5.29;100.00;100596.09;108802;1266;22605;-82
2024/02/16 07:32:38;;;;;;;39.90;18.80;;;;;;;5.34;100.00;100600.79;108875;1265;22585;-83
2024/02/16 07:35:26;;;;;;;42.30;19.20;;;;;;;5.38;100.00;100594.98;108902;1266;22518;-83
2024/02/16 07:38:14;;;;;;;40.20;19.90;;;;;;;5.43;100.00;100591.85;108978;1268;23447;-82
2024/02/16 07:41:02;;;;;;;41.10;20.60;;;;;;;5.49;100.00;100588.15;109153;1268;22520;-81
2024/02/16 07:43:50;;;;;;;43.60;21.80;;;;;;;5.54;100.00;100586.10;109503;1266;23197;-82
2024/02/16 07:46:42;;;;;;;43.10;23.10;;;;;;;5.60;100.00;100584.84;109771;1266;22608;-82
2024/02/16 07:49:30;;;;;;;46.30;23.00;;;;;;;5.67;100.00;100581.88;110070;1268;22560;-82
2024/02/16 07:52:17;;;;;;;41.90;20.00;;;;;;;5.73;100.00;100576.51;109935;1261;24254;-83
2024/02/16 07:55:06;;;;;;;47.50;21.40;;;;;;;5.79;100.00;100576.56;109249;1268;22544;-82
2024/02/16 07:57:54;;;;;;;45.30;21.60;;;;;;;5.85;100.00;100573.18;109860;1269;22551;-83
2024/02/16 08:00:41;;;;;;;43.50;20.20;;;;;;;5.91;100.00;100571.05;109968;1266;22560;-83
2024/02/16 08:03:30;;;;;;;40.40;20.00;;;;;;;5.98;100.00;100574.77;108826;1253;22839;-83
2024/02/16 08:06:20;;;;;;;38.60;18.50;;;;;;;6.04;100.00;100572.86;111427;1259;23046;-83
2024/02/16 08:09:07;;;;;;;42.70;20.80;;;;;;;6.09;100.00;100576.52;111438;1266;22325;-82
2024/02/16 08:11:55;;;;;;;41.80;18.20;;;;;;;6.16;100.00;100579.26;111335;1264;22500;-83
2024/02/16 08:14:42;;;;;;;43.40;21.00;;;;;;;6.22;100.00;100578.98;111160;1263;22263;-83
2024/02/16 08:17:30;;;;;;;44.60;20.10;;;;;;;6.29;100.00;100574.48;111337;1258;22193;-84
2024/02/16 08:20:18;;;;;;;44.50;21.80;;;;;;;6.39;100.00;100574.83;111347;1266;22103;-84
2024/02/16 08:23:06;;;;;;;42.90;20.90;;;;;;;6.46;100.00;100579.67;111261;1266;22193;-83
2024/02/16 08:25:55;;;;;;;44.80;20.90;;;;;;;6.55;100.00;100577.34;111422;1265;22194;-83
2024/02/16 08:28:45;;;;;;;44.90;21.20;;;;;;;6.64;100.00;100574.67;111403;1260;22160;-83
2024/02/16 08:31:32;;;;;;;46.60;22.00;;;;;;;6.72;100.00;100569.20;111215;1266;22082;-83
2024/02/16 08:34:19;;;;;;;41.00;20.30;;;;;;;6.80;100.00;100560.84;111407;1268;22161;-83
2024/02/16 08:37:07;;;;;;;43.30;19.90;;;;;;;6.88;100.00;100561.23;111390;1268;22186;-83
2024/02/16 08:39:55;;;;;;;40.00;19.10;;;;;;;6.98;100.00;100556.46;111032;1269;22674;-84
2024/02/16 08:42:43;;;;;;;38.20;19.70;;;;;;;7.06;100.00;100551.11;111260;1253;22144;-84
2024/02/16 08:45:30;;;;;;;42.10;20.40;;;;;;;7.14;100.00;100555.52;111340;1263;22171;-84
2024/02/16 08:48:17;;;;;;;39.10;18.30;;;;;;;7.21;100.00;100555.96;111348;1265;22139;-83
2024/02/16 08:51:06;;;;;;;41.00;21.10;;;;;;;7.35;100.00;100551.45;111401;1266;23208;-84
2024/02/16 08:53:53;;;;;;;37.10;17.10;;;;;;;7.47;100.00;100548.60;108934;1264;22549;-83
2024/02/16 08:56:41;;;;;;;39.20;18.90;;;;;;;7.59;100.00;100547.77;108698;1263;22525;-82
2024/02/16 08:59:30;;;;;;;39.60;18.30;;;;;;;7.69;100.00;100546.84;109702;1266;22568;-84
2024/02/16 09:02:18;;;;;;;41.40;18.10;;;;;;;7.84;100.00;100537.61;110110;1263;22641;-84
2024/02/16 09:05:09;;;;;;;49.10;22.60;;;;;;;8.03;100.00;100536.13;109963;1268;22556;-84
2024/02/16 09:07:57;;;;;;;48.30;19.30;;;;;;;8.19;100.00;100533.22;110101;1265;22541;-84
2024/02/16 09:10:45;;;;;;;43.60;18.90;;;;;;;8.33;100.00;100539.29;108570;1265;25395;-84
2024/02/16 09:13:33;;;;;;;46.20;19.60;;;;;;;8.44;100.00;100536.30;108474;1268;25386;-85
2024/02/16 09:16:21;;;;;;;43.30;18.30;;;;;;;8.55;100.00;100534.50;108785;1263;22514;-85
2024/02/16 09:19:12;;;;;;;38.80;16.70;;;;;;;8.65;100.00;100536.66;108800;1263;23307;-85
2024/02/16 09:22:03;;;;;;;33.50;14.60;;;;;;;8.75;100.00;100534.19;108867;1268;24336;-84
2024/02/16 09:24:51;;;;;;;31.20;12.00;;;;;;;8.88;100.00;100533.80;111052;1269;22352;-85
2024/02/16 09:27:40;;;;;;;26.50;10.20;;;;;;;9.01;100.00;100528.96;111174;1269;22099;-84
2024/02/16 09:30:28;;;;;;;24.70;9.40;;;;;;;9.19;100.00;100529.88;111236;1266;23247;-83
2024/02/16 09:33:16;;;;;;;25.80;9.00;;;;;;;9.32;99.98;100531.23;111379;1266;22109;-83
2024/02/16 09:36:05;;;;;;;18.40;6.80;;;;;;;9.47;99.67;100531.38;111226;1259;22850;-83
2024/02/16 09:38:53;;;;;;;19.80;8.50;;;;;;;9.62;99.50;100528.95;111408;1265;22162;-83
2024/02/16 09:41:44;;;;;;;19.90;7.70;;;;;;;9.74;99.22;100527.23;111288;1269;22894;-83
2024/02/16 09:44:35;;;;;;;17.60;7.10;;;;;;;9.86;98.84;100526.77;111245;1269;22625;-83
2024/02/16 09:47:23;;;;;;;20.60;6.30;;;;;;;9.96;98.31;100530.08;111302;1265;22613;-83
2024/02/16 09:50:12;;;;;;;18.80;5.90;;;;;;;10.06;97.51;100526.73;111237;1250;22170;-83
2024/02/16 09:53:04;;;;;;;21.10;7.00;;;;;;;10.14;96.99;100528.05;109576;1268;22527;-82
2024/02/16 09:55:52;;;;;;;19.60;6.80;;;;;;;10.17;96.84;100526.45;108751;1268;25237;-83
2024/02/16 09:58:41;;;;;;;19.80;7.30;;;;;;;10.19;96.38;100528.38;108597;1268;25412;-84
2024/02/16 10:01:29;;;;;;;18.70;7.40;;;;;;;10.18;96.17;100532.35;108892;1268;23372;-85
2024/02/16 10:04:18;;;;;;;18.60;7.40;;;;;;;10.17;96.15;100537.24;108705;1266;25242;-85
2024/02/16 10:07:06;;;;;;;26.10;9.00;;;;;;;10.14;96.33;100536.33;108597;1268;23313;-85
2024/02/16 10:09:54;;;;;;;32.80;12.00;;;;;;;10.12;96.29;100534.58;108861;1262;22555;-85
2024/02/16 10:12:42;;;;;;;35.90;12.60;;;;;;;10.10;96.27;100531.64;108860;1268;22554;-85
2024/02/16 10:15:31;;;;;;;40.90;14.70;;;;;;;10.10;96.45;100530.45;108930;1260;22743;-85
2024/02/16 10:18:20;;;;;;;37.00;13.80;;;;;;;10.09;96.48;100524.50;108663;1268;22665;-85
2024/02/16 10:21:09;;;;;;;37.00;14.30;;;;;;;10.09;96.06;100523.72;108745;1263;22927;-86
2024/02/16 10:24:00;;;;;;;40.80;12.80;;;;;;;10.08;96.09;100527.90;108493;1268;24049;-84
2024/02/16 10:26:47;;;;;;;;;;;;;;;10.10;96.02;100527.73;111049;1269;22434;-86
2024/02/16 10:29:36;;;;;;;29.20;10.20;;;;;;;10.15;95.90;100528.41;111059;1269;22196;-83
2024/02/16 10:32:25;;;;;;;22.30;8.30;;;;;;;10.21;95.71;100528.33;111254;1268;22390;-83
2024/02/16 10:35:14;;;;;;;21.00;7.90;;;;;;;10.31;94.64;100527.77;109487;1266;25373;-83
2024/02/16 10:38:04;;;;;;;22.00;8.90;;;;;;;10.42;94.60;100521.19;108806;1257;22567;-83
2024/02/16 10:40:53;;;;;;;23.10;7.80;;;;;;;10.51;94.12;100520.48;111389;1266;22920;-83
2024/02/16 10:43:40;;;;;;;17.50;6.20;;;;;;;10.58;93.47;100515.77;111414;1268;23008;-83
2024/02/16 10:46:28;;;;;;;15.80;6.00;;;;;;;10.70;93.59;100517.92;111185;1268;22161;-83
2024/02/16 10:49:16;;;;;;;17.20;6.30;;;;;;;10.84;92.76;100517.79;111225;1266;22255;-84
2024/02/16 10:52:07;;;;;;;15.40;5.40;;;;;;;10.98;92.62;100514.16;111424;1264;22842;-83
2024/02/16 10:54:55;;;;;;;18.00;5.10;;;;;;;11.09;92.21;100509.03;111401;1268;22540;-83
2024/02/16 10:57:43;;;;;;;17.10;6.10;;;;;;;11.21;91.51;100506.59;111446;1266;22942;-83
2024/02/16 11:00:31;;;;;;;15.80;5.50;;;;;;;11.32;91.16;100503.52;111409;1261;22975;-83
2024/02/16 11:03:24;;;;;;;17.00;5.30;;;;;;;11.38;90.68;100491.48;111211;1268;22254;-82
2024/02/16 11:06:17;;;;;;;16.20;5.90;;;;;;;11.43;90.53;100487.10;111465;1261;22340;-83
2024/02/16 11:09:10;;;;;;;17.60;6.00;;;;;;;11.52;90.33;100484.08;111420;1266;22491;-83
2024/02/16 11:12:01;;;;;;;16.50;5.10;;;;;;;11.60;89.98;100473.75;111170;1268;22225;-83
2024/02/16 11:14:54;;;;;;;20.20;5.30;;;;;;;11.66;89.77;100472.31;111203;1268;22095;-83
2024/02/16 11:17:43;;;;;;;14.90;5.40;;;;;;;11.71;89.31;100475.21;111416;1268;22149;-84
2024/02/16 11:20:38;;;;;;;17.80;5.30;;;;;;;11.80;88.76;100469.32;111129;1269;22142;-85
2024/02/16 11:23:30;;;;;;;15.40;4.90;;;;;;;11.90;88.34;100463.40;111415;1266;22156;-84
2024/02/16 11:26:18;;;;;;;15.30;4.90;;;;;;;11.99;87.91;100465.85;111437;1266;22879;-85
2024/02/16 11:29:06;;;;;;;13.90;3.80;;;;;;;12.10;87.25;100466.73;110184;1266;23350;-84
2024/02/16 11:31:55;;;;;;;12.70;4.00;;;;;;;12.18;86.50;100460.55;108910;1268;22671;-82
2024/02/16 11:34:44;;;;;;;13.80;4.20;;;;;;;12.24;86.23;100461.05;108984;1268;22647;-83
2024/02/16 11:37:32;;;;;;;17.00;4.10;;;;;;;12.30;86.21;100450.20;108204;1268;22572;-84
2024/02/16 11:40:20;;;;;;;16.50;4.60;;;;;;;12.37;86.20;100445.42;108879;1268;22581;-84
2024/02/16 11:43:08;;;;;;;16.30;5.20;;;;;;;12.47;85.35;100448.52;108822;1268;22557;-83
2024/02/16 11:45:57;;;;;;;14.90;3.90;;;;;;;12.55;84.70;100446.35;108802;1259;22768;-84
2024/02/16 11:48:45;;;;;;;15.10;4.80;;;;;;;12.61;85.16;100442.91;108685;1260;23885;-84
2024/02/16 11:51:33;;;;;;;14.10;4.30;;;;;;;12.66;84.52;100440.55;108807;1266;22557;-84
2024/02/16 11:54:21;;;;;;;14.50;4.20;;;;;;;12.72;83.65;100440.73;108713;1268;22608;-83
2024/02/16 11:57:09;;;;;;;17.50;4.50;;;;;;;12.78;83.29;100446.65;108788;1267;25300;-84
2024/02/16 11:59:58;;;;;;;11.80;3.40;;;;;;;12.84;83.24;100439.21;108437;1269;24141;-85
2024/02/16 12:02:46;;;;;;;13.00;3.40;;;;;;;12.90;82.71;100437.55;108688;1269;22522;-85
2024/02/16 12:05:34;;;;;;;13.20;3.20;;;;;;;12.96;82.78;100435.08;108408;1265;22522;-84
2024/02/16 12:08:22;;;;;;;12.90;3.00;;;;;;;13.01;82.60;100432.20;108742;1266;24186;-85
2024/02/16 12:11:11;;;;;;;9.90;3.10;;;;;;;13.05;82.07;100430.38;108786;1266;22526;-84
2024/02/16 12:14:02;;;;;;;9.90;2.70;;;;;;;13.14;81.89;100427.07;108776;1262;22518;-84
2024/02/16 12:16:51;;;;;;;15.40;3.60;;;;;;;13.20;81.24;100422.70;111183;1267;22523;-84
2024/02/16 12:19:45;;;;;;;11.40;3.30;;;;;;;13.26;81.12;100426.08;111315;1268;22386;-85
2024/02/16 12:22:33;;;;;;;11.90;2.80;;;;;;;13.31;80.66;100430.92;111411;1266;22901;-86
2024/02/16 12:25:20;;;;;;;15.40;3.90;;;;;;;13.38;80.39;100427.54;111154;1268;22148;-85
2024/02/16 12:28:08;;;;;;;12.40;2.50;;;;;;;13.44;80.52;100426.18;111414;1269;23151;-86
2024/02/16 12:30:57;;;;;;;14.00;3.50;;;;;;;13.48;79.96;100425.86;111177;1266;22160;-85
2024/02/16 12:33:45;;;;;;;12.60;3.50;;;;;;;13.54;79.36;100419.79;111200;1265;22181;-85
2024/02/16 12:36:34;;;;;;;10.00;2.90;;;;;;;13.57;79.00;100420.55;111400;1266;22354;-84
2024/02/16 12:39:22;;;;;;;12.70;2.60;;;;;;;13.62;78.64;100415.79;111406;1263;22759;-85
2024/02/16 12:42:12;;;;;;;9.90;2.70;;;;;;;13.69;77.67;100409.90;111060;1263;24310;-85
2024/02/16 12:45:01;;;;;;;11.50;3.10;;;;;;;13.74;77.83;100408.20;111495;1269;22215;-85
2024/02/16 12:47:50;;;;;;;14.20;3.10;;;;;;;13.80;78.01;100402.64;111210;1269;22377;-85
2024/02/16 12:50:39;;;;;;;10.80;2.90;;;;;;;13.84;77.57;100400.48;111040;1269;23062;-85
2024/02/16 12:53:30;;;;;;;10.20;3.10;;;;;;;13.88;77.50;100402.09;111394;1266;22171;-85
2024/02/16 12:56:20;;;;;;;11.90;3.10;;;;;;;13.93;77.07;100401.02;111119;1262;23030;-85
2024/02/16 12:59:08;;;;;;;13.00;3.00;;;;;;;13.97;76.58;100402.11;111164;1268;22204;-85
2024/02/16 13:01:56;;;;;;;11.10;2.80;;;;;;;13.98;76.54;100402.68;111008;1268;22460;-86
2024/02/16 13:04:44;;;;;;;10.60;2.90;;;;;;;14.01;76.66;100403.63;111008;1268;23062;-86
2024/02/16 13:07:32;;;;;;;10.20;2.70;;;;;;;14.03;76.36;100399.71;111371;1268;22151;-85
2024/02/16 13:10:21;;;;;;;8.70;2.30;;;;;;;14.04;75.84;100394.00;111387;1268;22139;-85
2024/02/16 13:13:09;;;;;;;9.20;2.20;;;;;;;14.06;75.32;100392.02;111193;1268;22831;-86
2024/02/16 13:15:58;;;;;;;8.10;1.90;;;;;;;14.10;75.31;100391.74;111126;1268;22140;-84
2024/02/16 13:18:46;;;;;;;8.10;1.80;;;;;;;14.13;74.12;100391.05;111187;1265;22352;-85
2024/02/16 13:21:34;;;;;;;5.90;1.20;;;;;;;14.19;72.92;100387.52;111199;1266;23182;-85
2024/02/16 13:24:22;;;;;;;9.00;1.50;;;;;;;14.27;71.66;100392.48;111188;1261;23106;-86
2024/02/16 13:27:12;;;;;;;6.10;1.00;;;;;;;14.33;71.41;100393.67;111163;1261;23039;-86
2024/02/16 13:30:00;;;;;;;8.00;1.60;;;;;;;14.42;70.98;100392.23;111433;1268;22137;-85
2024/02/16 13:32:49;;;;;;;5.10;1.10;;;;;;;14.46;70.70;100385.27;111217;1268;23373;-86
2024/02/16 13:35:38;;;;;;;6.20;1.20;;;;;;;14.51;70.15;100387.85;111163;1269;23050;-86
2024/02/16 13:38:29;;;;;;;4.80;1.10;;;;;;;14.56;69.85;100380.38;111381;1268;22096;-86
2024/02/16 13:41:17;;;;;;;6.50;1.10;;;;;;;14.59;69.70;100381.65;111226;1268;22382;-85
2024/02/16 13:44:06;;;;;;;6.00;1.30;;;;;;;14.60;69.35;100385.50;111258;1263;22108;-86
2024/02/16 13:46:54;;;;;;;6.70;1.40;;;;;;;14.61;69.09;100382.13;111027;1268;22152;-86
2024/02/16 13:49:42;;;;;;;7.10;1.30;;;;;;;14.64;69.03;100380.72;111471;1263;22092;-86
2024/02/16 13:52:31;;;;;;;6.80;1.40;;;;;;;14.65;68.65;100378.83;111224;1268;22402;-86
2024/02/16 13:55:20;;;;;;;13.00;1.80;;;;;;;14.67;68.43;100371.64;111507;1264;22320;-86
2024/02/16 13:58:08;;;;;;;6.30;1.40;;;;;;;14.67;66.98;100373.27;111537;1266;22364;-86
2024/02/16 14:00:58;;;;;;;6.40;1.20;;;;;;;14.65;66.66;100375.91;111391;1269;22170;-86
2024/02/16 14:03:47;;;;;;;6.40;1.40;;;;;;;14.60;67.13;100380.08;111476;1264;22360;-86
2024/02/16 14:06:36;;;;;;;6.40;1.30;;;;;;;14.55;67.27;100381.69;111253;1269;22168;-87
2024/02/16 14:09:25;;;;;;;6.10;1.30;;;;;;;14.49;67.28;100384.58;111167;1261;22853;-86
2024/02/16 14:12:15;;;;;;;7.30;1.10;;;;;;;14.44;67.07;100383.36;111442;1260;22278;-85
2024/02/16 14:15:05;;;;;;;8.80;1.30;;;;;;;14.38;66.66;100384.71;111499;1267;22127;-86
2024/02/16 14:17:52;;;;;;;5.80;1.20;;;;;;;14.30;66.25;100387.26;111106;1268;22382;-86
2024/02/16 14:20:40;;;;;;;6.80;1.40;;;;;;;14.23;66.34;100385.14;111189;1268;22806;-87
2024/02/16 14:23:29;;;;;;;6.80;1.30;;;;;;;14.15;66.50;100384.17;111461;1266;22238;-86
2024/02/16 14:26:19;;;;;;;9.00;1.50;;;;;;;14.09;66.80;100378.98;111444;1267;22348;-85
2024/02/16 14:29:10;;;;;;;5.70;1.70;;;;;;;14.02;66.16;100378.21;111433;1266;22574;-86
2024/02/16 14:32:00;;;;;;;8.10;1.60;;;;;;;13.95;66.38;100378.46;111448;1267;22487;-86
2024/02/16 14:34:48;;;;;;;6.20;1.20;;;;;;;13.89;66.49;100384.08;111160;1267;22197;-86
2024/02/16 14:37:36;;;;;;;9.60;1.90;;;;;;;13.82;66.58;100377.04;111563;1263;23012;-85
2024/02/16 14:40:26;;;;;;;8.60;1.70;;;;;;;13.74;66.33;100384.11;111348;1268;22155;-85
2024/02/16 14:43:14;;;;;;;10.30;1.50;;;;;;;13.68;66.31;100379.63;111436;1268;22132;-84
2024/02/16 14:46:04;;;;;;;7.60;1.50;;;;;;;13.63;66.37;100375.70;111233;1267;22094;-85
2024/02/16 14:48:52;;;;;;;7.80;1.50;;;;;;;13.57;66.62;100370.71;111406;1266;22973;-85
2024/02/16 14:51:42;;;;;;;8.30;1.60;;;;;;;13.50;66.68;100373.95;111465;1264;22128;-84
2024/02/16 14:54:29;;;;;;;;;;;;;;;13.43;66.50;100377.27;110463;1269;22640;-85
2024/02/16 14:57:19;;;;;;;8.10;1.50;;;;;;;13.37;66.70;100375.46;108520;1260;22515;-84
2024/02/16 15:00:08;;;;;;;;;;;;;;;13.30;66.65;100368.88;108783;1261;22544;-84
2024/02/16 15:02:56;;;;;;;6.40;1.50;;;;;;;13.23;66.77;100362.99;109060;1268;25364;-84
2024/02/16 15:05:45;;;;;;;7.80;1.70;;;;;;;13.18;66.90;100365.70;109019;1268;22557;-83
2024/02/16 15:08:34;;;;;;;10.50;2.20;;;;;;;13.14;66.70;100372.84;108862;1269;22550;-83
2024/02/16 15:11:22;;;;;;;8.90;1.90;;;;;;;13.10;66.84;100375.41;108810;1268;22560;-83
2024/02/16 15:14:11;;;;;;;12.00;1.90;;;;;;;13.07;66.99;100378.23;109127;1264;22524;-84
2024/02/16 15:17:02;;;;;;;10.10;2.00;;;;;;;13.04;67.10;100378.73;111449;1266;22193;-85
2024/02/16 15:19:50;;;;;;;11.40;2.20;;;;;;;12.99;67.12;100375.70;111409;1261;22302;-85
2024/02/16 15:22:40;;;;;;;13.20;2.50;;;;;;;12.96;67.27;100368.75;111466;1268;22156;-85
2024/02/16 15:25:28;;;;;;;8.00;1.70;;;;;;;12.93;67.33;100371.05;111341;1261;22180;-85
2024/02/16 15:28:18;;;;;;;7.90;2.40;;;;;;;12.90;67.42;100370.20;111075;1267;22092;-85
2024/02/16 15:31:06;;;;;;;11.10;2.50;;;;;;;12.86;67.32;100379.23;111444;1263;22164;-85
2024/02/16 15:33:54;;;;;;;13.90;2.80;;;;;;;12.83;67.77;100377.80;111206;1268;23021;-84
2024/02/16 15:36:43;;;;;;;13.30;3.10;;;;;;;12.80;67.57;100384.39;111257;1265;23214;-85
2024/02/16 15:39:30;;;;;;;15.40;4.00;;;;;;;12.76;67.56;100385.52;111392;1260;22554;-84
2024/02/16 15:42:20;;;;;;;15.00;3.50;;;;;;;12.73;67.66;100386.04;111200;1261;22141;-85
2024/02/16 15:45:08;;;;;;;14.10;3.90;;;;;;;12.68;67.97;100384.08;111459;1260;22199;-85
2024/02/16 15:47:56;;;;;;;18.30;4.40;;;;;;;12.65;67.95;100381.50;111127;1268;22097;-84
2024/02/16 15:50:44;;;;;;;13.50;3.20;;;;;;;12.63;68.11;100377.97;111375;1268;22148;-83
2024/02/16 15:53:32;;;;;;;13.40;3.20;;;;;;;12.60;68.01;100381.29;111211;1269;22578;-84
2024/02/16 15:56:19;;;;;;;20.20;6.00;;;;;;;12.58;68.10;100380.55;111226;1264;23445;-85
2024/02/16 15:59:07;;;;;;;14.30;3.70;;;;;;;12.54;68.32;100379.73;111413;1264;22784;-84
2024/02/16 16:01:54;;;;;;;15.60;4.10;;;;;;;12.50;68.40;100387.40;111210;1267;22184;-84
2024/02/16 16:04:42;;;;;;;13.70;4.50;;;;;;;12.47;68.44;100388.60;111445;1260;22217;-84
2024/02/16 16:07:31;;;;;;;17.90;4.50;;;;;;;12.45;68.71;100387.20;111459;1267;22849;-85
2024/02/16 16:10:18;;;;;;;10.90;3.20;;;;;;;12.43;68.91;100391.85;111471;1260;22111;-85
2024/02/16 16:13:08;;;;;;;10.80;3.20;;;;;;;12.40;69.00;100392.22;111446;1265;22749;-85
2024/02/16 16:15:56;;;;;;;12.70;2.20;;;;;;;12.37;69.10;100390.90;111472;1266;22387;-85
2024/02/16 16:18:44;;;;;;;11.20;3.20;;;;;;;12.35;69.25;100392.86;111621;1256;22160;-84
2024/02/16 16:21:32;;;;;;;12.10;2.80;;;;;;;12.34;69.38;100398.33;111585;1268;22219;-86
2024/02/16 16:24:21;;;;;;;10.80;2.90;;;;;;;12.32;69.47;100399.33;111294;1260;22241;-88
2024/02/16 16:27:13;;;;;;;15.20;3.10;;;;;;;12.32;69.67;100404.11;109918;1260;24058;-89
2024/02/16 16:30:02;;;;;;;13.10;3.50;;;;;;;12.31;69.75;100403.77;109421;1268;22553;-90
2024/02/16 16:32:55;;;;;;;14.20;3.80;;;;;;;12.30;69.96;100399.81;109388;1268;22533;-88
2024/02/16 16:35:45;;;;;;;13.10;3.50;;;;;;;12.28;70.14;100394.33;111175;1269;22112;-89
2024/02/16 16:38:37;;;;;;;15.10;3.80;;;;;;;12.26;70.27;100396.14;109309;1268;22995;-87
2024/02/16 16:41:27;;;;;;;16.60;4.60;;;;;;;12.23;70.33;100399.66;109123;1260;22517;-88
2024/02/16 16:44:18;;;;;;;14.10;4.20;;;;;;;12.21;70.51;100398.20;110124;1263;22613;-88
2024/02/16 16:47:12;;;;;;;16.40;5.30;;;;;;;12.19;70.62;100403.27;109791;1268;22538;-88
2024/02/16 16:50:03;;;;;;;15.40;4.90;;;;;;;12.15;70.68;100406.66;109145;1262;22611;-88
2024/02/16 16:52:52;;;;;;;17.30;5.60;;;;;;;12.12;70.78;100405.60;109053;1268;25277;-87
2024/02/16 16:55:43;;;;;;;14.50;4.70;;;;;;;12.11;70.96;100412.91;109229;1267;23136;-89
2024/02/16 16:58:34;;;;;;;15.70;5.00;;;;;;;12.09;71.09;100413.55;109312;1267;25271;-89
2024/02/16 17:01:22;;;;;;;15.80;4.30;;;;;;;12.08;71.22;100413.98;109828;1266;25391;-88
2024/02/16 17:04:12;;;;;;;14.50;3.60;;;;;;;12.06;71.24;100416.70;109041;1269;22563;-88
2024/02/16 17:07:03;;;;;;;17.40;3.90;;;;;;;12.05;71.26;100416.79;108867;1247;22555;-87
2024/02/16 17:09:56;;;;;;;14.30;4.40;;;;;;;12.03;71.40;100421.28;108813;1265;25290;-89
2024/02/16 17:12:46;;;;;;;14.30;3.90;;;;;;;12.01;71.50;100420.40;108841;1266;22565;-87
2024/02/16 17:15:41;;;;;;;10.60;3.70;;;;;;;11.99;71.48;100420.10;108933;1261;22526;-88
2024/02/16 17:18:29;;;;;;;12.70;3.60;;;;;;;11.97;71.58;100418.89;108717;1264;26587;-87
2024/02/16 17:21:20;;;;;;;16.10;3.70;;;;;;;11.94;71.90;100420.89;109159;1268;23958;-88
2024/02/16 17:24:10;;;;;;;14.50;4.60;;;;;;;11.91;71.68;100422.01;108937;1268;28003;-88
2024/02/16 17:26:58;;;;;;;;;;;;;;;11.89;71.85;100420.64;109033;1269;24184;-87